Time;durP1;ratioP1;P1;durP2;ratioP2;P2;SDS_P1;SDS_P2;PMS_P1;PMS_P2;Temp;Humidity;BMP_temperature;BMP_pressure;BME280_temperature;BME280_humidity;BME280_pressure;Samples;Min_cycle;Max_cycle;Signal;HPM_P1;HPM_P2
2022/03/05 00:00:16;;;;;;;12.70;7.03;;;4.60;72.50;;;;;;5112135;27;20237;-74
2022/03/05 00:02:44;;;;;;;12.93;7.20;;;4.60;72.80;;;;;;5103852;27;20248;-74
2022/03/05 00:05:10;;;;;;;13.80;7.97;;;4.50;73.50;;;;;;5114571;27;20179;-74
2022/03/05 00:07:36;;;;;;;11.87;7.30;;;4.50;73.60;;;;;;5112815;27;20188;-74
2022/03/05 00:10:03;;;;;;;14.23;7.53;;;4.50;73.80;;;;;;5084835;28;20203;-74
2022/03/05 00:12:30;;;;;;;12.63;7.33;;;4.40;74.50;;;;;;5096934;28;20184;-73
2022/03/05 00:14:58;;;;;;;14.17;8.07;;;4.40;74.50;;;;;;5109242;27;22640;-74
2022/03/05 00:17:23;;;;;;;14.77;7.87;;;4.40;75.10;;;;;;5104666;28;20208;-75
2022/03/05 00:19:49;;;;;;;13.37;7.40;;;4.30;75.10;;;;;;5108309;27;20210;-75
2022/03/05 00:22:18;;;;;;;13.73;7.73;;;4.30;75.30;;;;;;5073830;28;20196;-74
2022/03/05 00:24:45;;;;;;;15.53;8.17;;;4.30;76.10;;;;;;5066518;28;20276;-74
2022/03/05 00:27:10;;;;;;;14.90;7.90;;;4.20;76.90;;;;;;5084053;28;20177;-72
2022/03/05 00:29:36;;;;;;;17.27;8.00;;;4.20;77.10;;;;;;5081903;28;20255;-75
2022/03/05 00:32:07;;;;;;;14.77;7.97;;;4.20;77.30;;;;;;5090701;28;20211;-74
2022/03/05 00:34:35;;;;;;;12.37;6.90;;;4.10;78.00;;;;;;5079274;28;20184;-74
2022/03/05 00:37:01;;;;;;;13.10;7.43;;;4.10;77.80;;;;;;5078302;28;20191;-73
2022/03/05 00:39:29;;;;;;;13.63;7.70;;;4.10;78.10;;;;;;5079703;28;20357;-72
2022/03/05 00:41:54;;;;;;;14.70;8.53;;;4.00;78.40;;;;;;5106589;27;20200;-74
2022/03/05 00:44:23;;;;;;;14.50;7.83;;;4.00;78.70;;;;;;5083491;28;20261;-71
2022/03/05 00:46:50;;;;;;;13.67;7.53;;;4.00;79.50;;;;;;5070391;28;21232;-75
2022/03/05 00:49:16;;;;;;;12.27;7.20;;;4.00;79.30;;;;;;5078038;28;20176;-74
2022/03/05 00:51:42;;;;;;;13.53;7.50;;;3.90;79.50;;;;;;5073939;28;20182;-74
2022/03/05 00:54:08;;;;;;;14.13;7.73;;;3.90;79.90;;;;;;5104909;27;20287;-71
2022/03/05 00:56:36;;;;;;;15.10;7.90;;;3.90;80.40;;;;;;5078095;28;20194;-74
2022/03/05 00:59:02;;;;;;;15.03;7.93;;;3.80;80.70;;;;;;5120395;27;20175;-72
2022/03/05 01:01:30;;;;;;;16.30;8.83;;;3.80;81.10;;;;;;5086734;28;20196;-74
2022/03/05 01:03:58;;;;;;;16.83;7.90;;;3.80;82.00;;;;;;5080045;28;20182;-74
2022/03/05 01:06:27;;;;;;;15.40;8.20;;;3.70;83.10;;;;;;5096467;28;20185;-74
2022/03/05 01:08:57;;;;;;;13.80;7.77;;;3.70;83.10;;;;;;5079937;28;20257;-71
2022/03/05 01:11:24;;;;;;;13.33;7.73;;;3.70;83.30;;;;;;5075587;28;20184;-69
2022/03/05 01:13:50;;;;;;;12.57;7.37;;;3.70;83.60;;;;;;5080570;28;20218;-74
2022/03/05 01:16:16;;;;;;;14.43;8.00;;;3.60;83.90;;;;;;5082161;28;20200;-74
2022/03/05 01:18:43;;;;;;;14.33;7.53;;;3.60;84.10;;;;;;5079193;28;20177;-73
2022/03/05 01:21:08;;;;;;;14.50;7.33;;;3.60;84.50;;;;;;5111576;27;20203;-74
2022/03/05 01:23:38;;;;;;;13.73;7.97;;;3.60;84.90;;;;;;5082651;28;20254;-74
2022/03/05 01:26:07;;;;;;;13.77;7.50;;;3.50;86.00;;;;;;5077563;28;20270;-74
2022/03/05 01:28:35;;;;;;;14.57;8.00;;;3.50;85.70;;;;;;5108610;27;20191;-72
2022/03/05 01:31:01;;;;;;;15.13;8.37;;;3.50;86.00;;;;;;5117515;28;20294;-74
2022/03/05 01:33:29;;;;;;;15.53;8.50;;;3.50;86.50;;;;;;5083146;28;20278;-74
2022/03/05 01:35:55;;;;;;;14.47;7.73;;;3.40;86.60;;;;;;5075493;28;20191;-73
2022/03/05 01:38:20;;;;;;;14.23;7.60;;;3.40;87.50;;;;;;5078731;28;20183;-75
2022/03/05 01:40:51;;;;;;;15.90;7.83;;;3.40;87.50;;;;;;5072852;28;20199;-75
2022/03/05 01:43:19;;;;;;;15.00;8.03;;;3.30;87.80;;;;;;5082857;28;20186;-74
2022/03/05 01:45:47;;;;;;;14.47;7.40;;;3.30;88.50;;;;;;5107196;28;20211;-74
2022/03/05 01:48:13;;;;;;;13.40;7.67;;;3.30;89.20;;;;;;5075888;28;20187;-72
2022/03/05 01:50:38;;;;;;;16.70;7.80;;;3.30;89.10;;;;;;5108941;28;20195;-74
2022/03/05 01:53:04;;;;;;;16.20;7.80;;;3.20;89.30;;;;;;5079253;28;20211;-74
2022/03/05 01:55:31;;;;;;;14.93;7.60;;;3.20;89.80;;;;;;5088331;28;20191;-73
2022/03/05 01:57:59;;;;;;;14.77;8.10;;;3.20;90.10;;;;;;5076699;28;20179;-73
2022/03/05 02:00:27;;;;;;;14.30;7.20;;;3.10;90.40;;;;;;5084814;28;20211;-74
2022/03/05 02:02:53;;;;;;;15.83;8.20;;;3.10;90.50;;;;;;5085862;28;20183;-73
2022/03/05 02:05:18;;;;;;;15.97;8.57;;;3.10;90.80;;;;;;5107248;28;20175;-73
2022/03/05 02:07:45;;;;;;;16.90;8.33;;;3.00;90.80;;;;;;5079929;28;20264;-73
2022/03/05 02:10:11;;;;;;;14.10;7.43;;;3.00;90.90;;;;;;5087911;28;20184;-74
2022/03/05 02:12:37;;;;;;;14.50;7.67;;;3.00;91.10;;;;;;5118147;27;20196;-71
2022/03/05 02:15:05;;;;;;;14.77;7.60;;;3.00;91.30;;;;;;5079009;28;20342;-72
2022/03/05 02:17:30;;;;;;;14.47;7.37;;;2.90;91.40;;;;;;5110680;28;20188;-72
2022/03/05 02:19:59;;;;;;;15.07;8.03;;;2.90;91.60;;;;;;5109876;27;20204;-73
2022/03/05 02:22:25;;;;;;;15.80;8.57;;;2.90;91.90;;;;;;5082049;28;20207;-74
2022/03/05 02:24:58;;;;;;;14.83;7.80;;;2.90;92.40;;;;;;5094387;28;20175;-73
2022/03/05 02:27:25;;;;;;;17.07;8.23;;;2.80;92.20;;;;;;5080152;28;20184;-74
2022/03/05 02:29:53;;;;;;;16.10;8.57;;;2.80;92.40;;;;;;5076460;28;20231;-74
2022/03/05 02:32:19;;;;;;;14.60;7.73;;;2.80;92.70;;;;;;5090801;28;20187;-71
2022/03/05 02:34:45;;;;;;;13.80;7.80;;;2.70;93.10;;;;;;5081313;28;20192;-71
2022/03/05 02:37:15;;;;;;;18.07;8.63;;;2.70;93.20;;;;;;5113935;27;20311;-75
2022/03/05 02:39:44;;;;;;;16.13;8.90;;;2.70;93.50;;;;;;5116933;27;20340;-73
2022/03/05 02:42:10;;;;;;;14.57;8.03;;;2.70;93.70;;;;;;5092461;28;20185;-73
2022/03/05 02:44:43;;;;;;;15.33;8.20;;;2.60;93.70;;;;;;5089463;28;20344;-72
2022/03/05 02:47:11;;;;;;;13.07;7.50;;;2.60;94.00;;;;;;5077521;28;20184;-73
2022/03/05 02:49:37;;;;;;;14.37;7.97;;;2.60;94.10;;;;;;5076757;28;20176;-73
2022/03/05 02:52:07;;;;;;;15.07;7.77;;;2.60;94.00;;;;;;5079734;28;20237;-70
2022/03/05 02:54:34;;;;;;;15.03;7.63;;;2.50;94.00;;;;;;5075299;28;20180;-73
2022/03/05 02:57:02;;;;;;;14.23;7.97;;;2.50;94.10;;;;;;5081501;28;20241;-73
2022/03/05 02:59:28;;;;;;;13.93;7.67;;;2.50;94.40;;;;;;5084860;28;20208;-74
2022/03/05 03:01:53;;;;;;;17.73;8.43;;;2.50;94.60;;;;;;5123083;27;20204;-74
2022/03/05 03:04:21;;;;;;;15.67;8.33;;;2.50;94.60;;;;;;5094447;28;20172;-74
2022/03/05 03:06:47;;;;;;;17.73;8.47;;;2.50;94.90;;;;;;5080011;28;20199;-74
2022/03/05 03:09:13;;;;;;;13.70;7.63;;;2.40;95.10;;;;;;5086497;28;20223;-74
2022/03/05 03:11:40;;;;;;;15.50;8.00;;;2.40;95.10;;;;;;5110654;27;20204;-74
2022/03/05 03:14:06;;;;;;;13.10;7.30;;;2.40;95.30;;;;;;5066366;28;20225;-69
2022/03/05 03:16:34;;;;;;;14.00;7.63;;;2.40;95.40;;;;;;5112014;28;20191;-74
2022/03/05 03:18:59;;;;;;;14.07;7.47;;;2.40;95.50;;;;;;5114643;27;20172;-69
2022/03/05 03:21:27;;;;;;;12.27;6.97;;;2.40;95.50;;;;;;5116568;27;20206;-73
2022/03/05 03:23:55;;;;;;;16.10;8.33;;;2.40;95.60;;;;;;5109954;27;20172;-72
2022/03/05 03:26:20;;;;;;;13.97;7.70;;;2.40;95.80;;;;;;5083928;28;20167;-73
2022/03/05 03:28:46;;;;;;;15.33;7.80;;;2.40;95.80;;;;;;5082962;28;20191;-72
2022/03/05 03:31:12;;;;;;;13.67;7.97;;;2.30;95.80;;;;;;5113218;27;20183;-73
2022/03/05 03:33:40;;;;;;;16.23;8.03;;;2.30;96.00;;;;;;5108821;28;20237;-73
2022/03/05 03:36:05;;;;;;;14.93;7.73;;;2.30;96.30;;;;;;5079002;28;20397;-73
2022/03/05 03:38:31;;;;;;;16.63;7.73;;;2.20;96.40;;;;;;5112441;27;20171;-71
2022/03/05 03:40:57;;;;;;;14.73;7.70;;;2.20;96.50;;;;;;5100059;28;20291;-74
2022/03/05 03:43:25;;;;;;;14.13;7.40;;;2.20;96.60;;;;;;5079368;28;20302;-73
2022/03/05 03:45:50;;;;;;;14.10;7.50;;;2.20;96.90;;;;;;5080093;28;20176;-73
2022/03/05 03:48:16;;;;;;;14.17;7.23;;;2.10;96.60;;;;;;5088608;28;20176;-71
2022/03/05 03:50:42;;;;;;;13.17;7.50;;;2.10;96.70;;;;;;5082041;28;20207;-73
2022/03/05 03:53:07;;;;;;;13.63;7.40;;;2.10;96.80;;;;;;5081376;28;20231;-71
2022/03/05 03:55:35;;;;;;;15.70;7.90;;;2.10;97.00;;;;;;5117844;27;20206;-74
2022/03/05 03:58:04;;;;;;;14.43;7.53;;;2.10;97.10;;;;;;5080296;28;20356;-71
2022/03/05 04:00:32;;;;;;;14.87;8.03;;;2.10;97.30;;;;;;5106440;28;20205;-73
2022/03/05 04:02:58;;;;;;;15.77;7.90;;;2.10;97.30;;;;;;5086376;28;20179;-73
2022/03/05 04:05:26;;;;;;;13.07;7.10;;;2.10;97.50;;;;;;5091494;28;20200;-73
2022/03/05 04:10:35;;;;;;;14.97;8.10;;;2.00;97.70;;;;;;5090312;28;20245;-73
2022/03/05 04:13:01;;;;;;;12.83;7.17;;;2.00;97.70;;;;;;5108059;27;20189;-73
2022/03/05 04:15:27;;;;;;;15.33;8.10;;;2.00;97.70;;;;;;5109704;27;20297;-71
2022/03/05 04:17:55;;;;;;;15.67;7.60;;;2.00;97.90;;;;;;5081431;28;20233;-74
2022/03/05 04:20:23;;;;;;;13.67;7.80;;;2.00;98.10;;;;;;5114989;27;20261;-70
2022/03/05 04:22:49;;;;;;;15.97;7.63;;;2.00;98.40;;;;;;5081802;28;20225;-73
2022/03/05 04:25:14;;;;;;;14.47;7.80;;;2.00;98.20;;;;;;5077305;28;20207;-74
2022/03/05 04:27:40;;;;;;;18.90;9.37;;;1.90;98.40;;;;;;5108213;27;20176;-73
2022/03/05 04:30:07;;;;;;;21.50;10.63;;;2.00;99.90;;;;;;5066394;28;20176;-73
2022/03/05 04:32:33;;;;;;;19.20;10.10;;;1.90;99.90;;;;;;5115056;27;20274;-73
2022/03/05 04:34:58;;;;;;;19.70;9.57;;;1.90;99.90;;;;;;5078726;28;20246;-73
2022/03/05 04:37:24;;;;;;;16.80;8.43;;;1.90;99.90;;;;;;5116185;27;20180;-72
2022/03/05 04:39:49;;;;;;;18.17;9.27;;;1.90;99.90;;;;;;5080629;28;20286;-73
2022/03/05 04:42:15;;;;;;;16.80;8.83;;;1.90;99.90;;;;;;5105669;27;20195;-73
2022/03/05 04:44:41;;;;;;;18.17;9.00;;;1.90;99.90;;;;;;5073858;28;20205;-73
2022/03/05 04:47:06;;;;;;;17.47;8.83;;;1.90;99.90;;;;;;5077925;28;20188;-70
2022/03/05 04:49:34;;;;;;;17.07;9.07;;;1.90;99.90;;;;;;5089319;28;20179;-73
2022/03/05 04:52:00;;;;;;;15.83;8.40;;;1.90;99.90;;;;;;5112365;27;20275;-67
2022/03/05 04:54:29;;;;;;;16.97;8.40;;;1.90;99.90;;;;;;5119685;27;20259;-73
2022/03/05 04:56:56;;;;;;;18.83;8.90;;;1.90;99.90;;;;;;5092730;28;20171;-71
2022/03/05 04:59:24;;;;;;;17.70;9.33;;;1.90;99.90;;;;;;5075758;28;20179;-73
2022/03/05 05:01:52;;;;;;;18.93;9.47;;;1.90;99.90;;;;;;5073009;28;20224;-73
2022/03/05 05:04:18;;;;;;;17.23;9.20;;;1.80;99.90;;;;;;5075348;28;20172;-71
2022/03/05 05:06:44;;;;;;;16.53;8.23;;;1.90;99.90;;;;;;5082969;28;20240;-72
2022/03/05 05:09:10;;;;;;;16.67;8.73;;;1.80;99.90;;;;;;5079506;28;20180;-81
2022/03/05 05:11:35;;;;;;;15.93;8.03;;;1.80;99.90;;;;;;5083835;28;20187;-80
2022/03/05 05:14:01;;;;;;;16.87;8.33;;;1.80;99.90;;;;;;5087886;28;20175;-81
2022/03/05 05:16:26;;;;;;;15.60;8.00;;;1.80;99.90;;;;;;5103414;28;20179;-81
2022/03/05 05:21:41;;;;;;;17.47;9.13;;;1.80;99.90;;;;;;5088971;28;20262;-78
2022/03/05 05:24:07;;;;;;;18.90;8.80;;;1.80;99.90;;;;;;5103982;28;20682;-81
2022/03/05 05:26:35;;;;;;;16.10;8.60;;;1.80;99.90;;;;;;5082647;28;20175;-76
2022/03/05 05:29:03;;;;;;;15.43;7.80;;;1.80;99.90;;;;;;5110878;28;20267;-71
2022/03/05 05:31:29;;;;;;;14.97;7.97;;;1.80;99.90;;;;;;5079567;28;20188;-82
2022/03/05 05:33:54;;;;;;;14.00;7.43;;;1.80;99.90;;;;;;5078791;28;20190;-76
2022/03/05 05:36:23;;;;;;;19.50;9.30;;;1.80;99.90;;;;;;5082472;28;20187;-80
2022/03/05 05:38:48;;;;;;;18.43;8.80;;;1.80;99.90;;;;;;5111617;28;20167;-79
2022/03/05 05:41:18;;;;;;;16.33;8.27;;;1.80;99.90;;;;;;5074906;28;20204;-82
2022/03/05 05:43:44;;;;;;;18.13;9.30;;;1.80;99.90;;;;;;5112399;28;20283;-80
2022/03/05 05:46:11;;;;;;;17.33;9.40;;;1.80;99.90;;;;;;5102484;28;20172;-78
2022/03/05 05:48:36;;;;;;;18.83;9.43;;;1.80;99.90;;;;;;5076493;28;20179;-77
2022/03/05 05:51:04;;;;;;;19.50;9.23;;;1.70;99.90;;;;;;5114301;28;20176;-77
2022/03/05 05:53:32;;;;;;;19.67;9.50;;;1.70;99.90;;;;;;5081408;28;20218;-77
2022/03/05 05:55:58;;;;;;;17.37;9.40;;;1.70;99.90;;;;;;5112021;28;20220;-75
2022/03/05 05:58:23;;;;;;;19.37;9.47;;;1.70;99.90;;;;;;5079239;28;20222;-75
2022/03/05 06:00:50;;;;;;;16.83;8.93;;;1.70;99.90;;;;;;5076647;28;20219;-81
2022/03/05 06:03:18;;;;;;;20.43;9.97;;;1.70;99.90;;;;;;5082415;28;20180;-78
2022/03/05 06:05:48;;;;;;;18.13;9.37;;;1.70;99.90;;;;;;5104448;28;20175;-77
2022/03/05 06:08:16;;;;;;;18.90;9.43;;;1.70;99.90;;;;;;5080143;28;20204;-80
2022/03/05 06:10:41;;;;;;;22.47;11.20;;;1.70;99.90;;;;;;5080343;28;20194;-79
2022/03/05 06:13:07;;;;;;;21.63;10.53;;;1.70;99.90;;;;;;5097591;28;20177;-81
2022/03/05 06:15:35;;;;;;;20.07;10.57;;;1.70;99.90;;;;;;5071866;28;20191;-80
2022/03/05 06:18:00;;;;;;;18.87;9.30;;;1.70;99.90;;;;;;5114692;28;20208;-73
2022/03/05 06:20:31;;;;;;;20.07;9.97;;;1.70;99.90;;;;;;5081762;28;20230;-81
2022/03/05 06:22:59;;;;;;;19.47;9.90;;;1.70;99.90;;;;;;5080593;28;20212;-81
2022/03/05 06:25:24;;;;;;;19.87;9.97;;;1.70;99.90;;;;;;5112600;28;20205;-81
2022/03/05 06:27:52;;;;;;;18.97;9.53;;;1.70;99.90;;;;;;5087270;28;20171;-73
2022/03/05 06:30:18;;;;;;;19.03;9.17;;;1.70;99.90;;;;;;5109449;28;20241;-79
2022/03/05 06:32:45;;;;;;;16.57;8.70;;;1.70;99.90;;;;;;5110687;28;20184;-79
2022/03/05 06:35:11;;;;;;;17.13;9.10;;;1.70;99.90;;;;;;5110929;28;20187;-81
2022/03/05 06:37:39;;;;;;;17.93;9.07;;;1.70;99.90;;;;;;5092656;28;20190;-80
2022/03/05 06:40:11;;;;;;;23.77;10.83;;;1.70;99.90;;;;;;5080360;28;20257;-81
2022/03/05 06:42:45;;;;;;;20.13;10.07;;;1.70;99.90;;;;;;5112913;27;20229;-80
2022/03/05 06:45:11;;;;;;;23.23;10.97;;;1.70;99.90;;;;;;5082977;28;20164;-80
2022/03/05 06:47:40;;;;;;;21.20;11.60;;;1.80;99.90;;;;;;5113056;28;20248;-78
2022/03/05 06:50:09;;;;;;;22.57;10.97;;;1.80;99.90;;;;;;5078856;28;20181;-76
2022/03/05 06:52:35;;;;;;;22.97;11.17;;;1.80;99.90;;;;;;5079478;28;20184;-80
2022/03/05 06:55:00;;;;;;;20.47;10.00;;;1.80;99.90;;;;;;5125623;27;20204;-75
2022/03/05 06:57:26;;;;;;;24.33;11.50;;;1.80;99.90;;;;;;5121649;27;20183;-76
2022/03/05 06:59:55;;;;;;;21.33;11.60;;;1.80;99.90;;;;;;5099839;27;20215;-79
2022/03/05 07:02:23;;;;;;;25.80;12.23;;;1.90;99.90;;;;;;5083810;28;20172;-75
2022/03/05 07:04:49;;;;;;;23.30;11.60;;;1.90;99.90;;;;;;5122110;27;20175;-78
2022/03/05 07:07:15;;;;;;;22.90;11.43;;;1.90;99.90;;;;;;5120139;27;20264;-81
2022/03/05 07:09:45;;;;;;;30.63;16.37;;;2.00;99.90;;;;;;5079551;28;20287;-79
2022/03/05 07:12:11;;;;;;;23.47;11.93;;;2.00;99.90;;;;;;5117158;27;20195;-78
2022/03/05 07:14:37;;;;;;;24.33;11.50;;;2.10;99.90;;;;;;5076693;28;20180;-78
2022/03/05 07:17:05;;;;;;;19.73;10.80;;;2.10;99.90;;;;;;5075267;28;20173;-79
2022/03/05 07:19:33;;;;;;;17.27;9.57;;;2.20;99.90;;;;;;5068214;28;20218;-75
2022/03/05 07:21:59;;;;;;;19.47;9.63;;;2.20;99.90;;;;;;5112957;27;20179;-78
2022/03/05 07:24:24;;;;;;;18.17;9.20;;;2.30;99.90;;;;;;5114621;27;20183;-81
2022/03/05 07:26:50;;;;;;;22.73;11.13;;;2.30;99.90;;;;;;5081702;28;20200;-76
2022/03/05 07:29:15;;;;;;;22.07;11.23;;;2.30;99.90;;;;;;5070942;28;20205;-72
2022/03/05 07:31:41;;;;;;;22.70;11.67;;;2.40;99.90;;;;;;5083178;28;20176;-79
2022/03/05 07:34:09;;;;;;;25.73;12.17;;;2.50;99.90;;;;;;5092853;28;20199;-78
2022/03/05 07:36:34;;;;;;;20.47;10.17;;;2.50;99.90;;;;;;5076820;28;20200;-78
2022/03/05 07:39:04;;;;;;;23.83;12.33;;;2.50;99.90;;;;;;5082181;28;20187;-80
2022/03/05 07:41:31;;;;;;;21.50;11.17;;;2.60;99.90;;;;;;5115379;27;20219;-79
2022/03/05 07:43:57;;;;;;;22.13;10.80;;;2.60;99.90;;;;;;5084689;28;20218;-74
2022/03/05 07:46:22;;;;;;;25.17;11.97;;;2.70;99.90;;;;;;5088965;28;20234;-75
2022/03/05 07:48:50;;;;;;;22.83;12.27;;;2.70;99.90;;;;;;5085482;28;20172;-73
2022/03/05 07:51:19;;;;;;;25.73;12.63;;;2.80;99.90;;;;;;5112933;27;20203;-74
2022/03/05 07:53:47;;;;;;;25.17;13.30;;;2.80;99.90;;;;;;5112605;28;20184;-74
2022/03/05 07:56:15;;;;;;;21.20;12.03;;;2.90;99.90;;;;;;5082549;28;20245;-75
2022/03/05 07:58:42;;;;;;;26.77;12.93;;;2.90;99.90;;;;;;5111321;27;20181;-75
2022/03/05 08:01:08;;;;;;;22.77;11.70;;;3.00;99.90;;;;;;5084765;28;20299;-76
2022/03/05 08:03:34;;;;;;;21.50;12.23;;;3.00;99.90;;;;;;5081699;28;20313;-73
2022/03/05 08:06:00;;;;;;;24.03;13.23;;;3.10;99.90;;;;;;5120107;27;20207;-81
2022/03/05 08:08:26;;;;;;;21.87;11.33;;;3.10;99.90;;;;;;5085779;28;20187;-79
2022/03/05 08:10:52;;;;;;;19.80;10.37;;;3.20;99.90;;;;;;5120013;27;20195;-77
2022/03/05 08:13:17;;;;;;;20.37;11.27;;;3.20;99.90;;;;;;5081796;28;20180;-79
2022/03/05 08:15:48;;;;;;;19.77;10.10;;;3.30;99.90;;;;;;5128590;27;20186;-77
2022/03/05 08:18:16;;;;;;;22.93;11.60;;;3.40;99.90;;;;;;5110507;27;20249;-75
2022/03/05 08:20:42;;;;;;;18.30;9.80;;;3.40;99.90;;;;;;5106492;27;20219;-78
2022/03/05 08:23:10;;;;;;;22.70;11.90;;;3.50;99.90;;;;;;5117707;27;20168;-80
2022/03/05 08:25:38;;;;;;;22.33;11.57;;;3.50;99.90;;;;;;5095341;28;20180;-77
2022/03/05 08:28:03;;;;;;;20.57;10.67;;;3.60;99.90;;;;;;5083794;28;20247;-79
2022/03/05 08:30:31;;;;;;;23.37;12.23;;;3.70;99.90;;;;;;5109891;27;20211;-78
2022/03/05 08:32:57;;;;;;;21.87;11.97;;;3.70;99.90;;;;;;5083057;28;20215;-80
2022/03/05 08:35:25;;;;;;;19.97;11.10;;;3.80;99.90;;;;;;5109506;28;20188;-76
2022/03/05 08:37:51;;;;;;;18.63;10.67;;;3.90;99.90;;;;;;5113548;27;20183;-79
2022/03/05 08:40:19;;;;;;;16.30;9.17;;;3.90;99.90;;;;;;5117146;27;20207;-77
2022/03/05 08:42:46;;;;;;;21.27;10.60;;;4.00;99.90;;;;;;5084773;28;20218;-79
2022/03/05 08:45:14;;;;;;;18.03;10.97;;;4.00;99.90;;;;;;5108743;27;20240;-78
2022/03/05 08:47:40;;;;;;;22.03;11.30;;;4.10;99.90;;;;;;5080920;28;20194;-79
2022/03/05 08:50:07;;;;;;;20.40;10.97;;;4.20;99.90;;;;;;5091339;28;20172;-80
2022/03/05 08:52:36;;;;;;;23.53;11.93;;;4.20;99.90;;;;;;5084458;28;20299;-76
2022/03/05 08:55:07;;;;;;;18.30;10.57;;;4.30;99.90;;;;;;5112069;28;20180;-81
2022/03/05 08:57:35;;;;;;;17.80;10.10;;;4.30;99.90;;;;;;5118597;27;20190;-75
2022/03/05 09:00:06;;;;;;;18.07;10.17;;;4.40;99.90;;;;;;5079499;28;20196;-80
2022/03/05 09:02:34;;;;;;;17.63;10.30;;;4.50;99.90;;;;;;5109409;28;20180;-81
2022/03/05 09:05:02;;;;;;;19.17;11.07;;;4.50;99.90;;;;;;5114733;27;20200;-74
2022/03/05 09:07:31;;;;;;;18.70;10.67;;;4.60;99.90;;;;;;5106585;27;20171;-79
2022/03/05 09:09:58;;;;;;;20.33;11.60;;;4.60;99.90;;;;;;5063046;28;20188;-81
2022/03/05 09:12:26;;;;;;;18.07;10.63;;;4.70;99.90;;;;;;5065168;28;20202;-78
2022/03/05 09:14:52;;;;;;;24.60;13.70;;;4.70;99.90;;;;;;5110670;27;20182;-79
2022/03/05 09:17:22;;;;;;;19.37;11.30;;;4.80;99.90;;;;;;5116715;27;20176;-80
2022/03/05 09:19:48;;;;;;;19.90;11.53;;;4.80;99.90;;;;;;5078820;28;20203;-80
2022/03/05 09:22:13;;;;;;;18.80;11.10;;;4.90;99.90;;;;;;5087142;28;20232;-79
2022/03/05 09:24:44;;;;;;;18.20;11.33;;;5.00;99.90;;;;;;5079672;28;20224;-79
2022/03/05 09:27:09;;;;;;;19.63;11.27;;;5.10;99.90;;;;;;5126354;27;20198;-77
2022/03/05 09:29:35;;;;;;;16.43;9.97;;;5.10;99.90;;;;;;5088392;28;20171;-81
2022/03/05 09:32:02;;;;;;;17.77;9.70;;;5.20;99.90;;;;;;5077382;28;20206;-78
2022/03/05 09:34:31;;;;;;;21.00;11.93;;;5.30;99.90;;;;;;5111699;28;20168;-71
2022/03/05 09:36:56;;;;;;;17.90;11.13;;;5.40;99.90;;;;;;5069949;28;20204;-80
2022/03/05 09:39:24;;;;;;;16.50;10.37;;;5.50;99.90;;;;;;5109921;28;20216;-81
2022/03/05 09:41:50;;;;;;;13.40;8.97;;;5.70;99.90;;;;;;5079516;28;20192;-80
2022/03/05 09:44:18;;;;;;;14.97;9.53;;;6.30;99.90;;;;;;5080797;28;20168;-70
2022/03/05 09:46:46;;;;;;;15.53;9.67;;;6.90;99.90;;;;;;5078402;28;20229;-80
2022/03/05 09:49:13;;;;;;;15.37;8.53;;;7.50;99.90;;;;;;5061582;28;20192;-78
2022/03/05 09:51:39;;;;;;;14.63;8.97;;;8.10;99.90;;;;;;5081063;28;20262;-80
2022/03/05 09:54:09;;;;;;;13.30;8.70;;;8.70;99.90;;;;;;5075085;28;20196;-81
2022/03/05 09:56:36;;;;;;;14.67;9.67;;;9.20;99.60;;;;;;5090421;28;20187;-76
2022/03/05 09:59:04;;;;;;;15.57;9.83;;;9.70;98.00;;;;;;5081511;28;20187;-81
2022/03/05 10:01:35;;;;;;;14.90;9.60;;;10.10;96.60;;;;;;5079413;28;20199;-79
2022/03/05 10:04:03;;;;;;;17.10;10.87;;;10.40;95.40;;;;;;5093406;28;20171;-81
2022/03/05 10:06:31;;;;;;;16.10;10.87;;;10.70;94.40;;;;;;5108716;28;20200;-81
2022/03/05 10:08:59;;;;;;;16.47;10.37;;;10.90;92.80;;;;;;5101656;28;20334;-81
2022/03/05 10:11:39;;;;;;;15.60;10.30;;;11.20;91.80;;;;;;5119141;28;20191;-81
2022/03/05 10:14:20;;;;;;;12.27;8.33;;;11.40;88.90;;;;;;5111752;28;20192;-81
2022/03/05 10:16:48;;;;;;;12.77;8.97;;;11.60;90.50;;;;;;5104748;27;20243;-81
2022/03/05 10:19:19;;;;;;;16.40;9.47;;;11.80;91.80;;;;;;5098324;28;20172;-81
2022/03/05 10:21:59;;;;;;;15.87;9.43;;;12.00;88.50;;;;;;5113343;28;20345;-70
2022/03/05 10:24:38;;;;;;;15.70;10.30;;;12.20;86.40;;;;;;5117534;27;20187;-81
2022/03/05 10:27:05;;;;;;;12.90;9.03;;;12.30;78.80;;;;;;5102454;27;20234;-77
2022/03/05 10:29:37;;;;;;;14.57;9.17;;;12.40;86.10;;;;;;5077704;28;20184;-80
2022/03/05 10:32:08;;;;;;;13.37;8.97;;;12.50;84.50;;;;;;5107194;27;20268;-80
2022/03/05 10:34:48;;;;;;;14.23;9.00;;;12.60;85.10;;;;;;5097417;28;20183;-79
2022/03/05 10:37:14;;;;;;;12.80;8.57;;;12.70;77.70;;;;;;5085048;28;20179;-80
2022/03/05 10:39:42;;;;;;;13.33;8.73;;;12.70;83.90;;;;;;5078789;28;20192;-74
2022/03/05 10:42:17;;;;;;;13.13;8.83;;;12.70;82.00;;;;;;5075709;28;20188;-81
2022/03/05 10:44:57;;;;;;;14.35;9.25;;;12.60;79.10;;;;;;5096394;28;20179;-81
2022/03/05 10:47:25;;;;;;;13.50;9.35;;;12.50;79.70;;;;;;5096499;28;20202;-80
2022/03/05 10:49:53;;;;;;;13.37;9.27;;;12.40;78.30;;;;;;5080036;28;20229;-81
2022/03/05 10:52:19;;;;;;;13.38;8.55;;;12.40;78.00;;;;;;5099975;28;20181;-81
2022/03/05 10:54:44;;;;;;;11.40;7.68;;;12.40;80.90;;;;;;5092780;28;20187;-80
2022/03/05 10:57:17;;;;;;;11.23;8.15;;;12.40;82.00;;;;;;5087604;28;20233;-81
2022/03/05 10:59:43;;;;;;;12.20;8.60;;;12.50;81.40;;;;;;5079257;28;20171;-82
2022/03/05 11:02:15;;;;;;;11.98;8.45;;;12.50;80.10;;;;;;5096562;28;20239;-80
2022/03/05 11:04:44;;;;;;;13.90;9.50;;;12.40;76.10;;;;;;5078559;28;20177;-81
2022/03/05 11:07:11;;;;;;;13.10;8.77;;;12.40;74.90;;;;;;5087313;28;20203;-81
2022/03/05 11:09:38;;;;;;;11.82;8.07;;;12.30;76.60;;;;;;5070382;28;20252;-81
2022/03/05 11:12:07;;;;;;;12.60;7.78;;;12.30;76.10;;;;;;5115744;27;20187;-86
2022/03/05 11:14:33;;;;;;;10.27;7.65;;;12.30;78.40;;;;;;5108834;27;20199;-87
2022/03/05 11:17:03;;;;;;;10.25;7.63;;;12.30;76.00;;;;;;5112338;27;20295;-74
2022/03/05 11:19:30;;;;;;;9.98;7.32;;;12.40;78.00;;;;;;5079982;28;20315;-82
2022/03/05 11:21:57;;;;;;;10.90;7.40;;;12.40;77.20;;;;;;5113092;27;20176;-86
2022/03/05 11:24:25;;;;;;;9.52;7.05;;;12.40;77.40;;;;;;5109604;28;20191;-84
2022/03/05 11:26:55;;;;;;;9.82;6.97;;;12.50;74.90;;;;;;5112245;27;20282;-75
2022/03/05 11:29:26;;;;;;;8.77;6.43;;;12.50;74.80;;;;;;5111998;27;20179;-81
2022/03/05 11:31:55;;;;;;;9.57;7.05;;;12.50;73.10;;;;;;5075389;28;20223;-74
2022/03/05 11:34:23;;;;;;;9.63;6.72;;;12.60;74.20;;;;;;5115381;27;20192;-80
2022/03/05 11:36:52;;;;;;;11.65;7.20;;;12.50;73.20;;;;;;5083609;28;20187;-80
2022/03/05 11:39:28;;;;;;;11.38;8.07;;;12.50;68.70;;;;;;5080092;28;20203;-79
2022/03/05 11:42:05;;;;;;;10.50;7.10;;;12.50;63.80;;;;;;5080792;28;20188;-83
2022/03/05 11:44:40;;;;;;;10.98;6.63;;;12.50;67.00;;;;;;5109087;27;20179;-82
2022/03/05 11:47:24;;;;;;;9.32;6.43;;;12.50;65.20;;;;;;5095067;28;20268;-87
2022/03/05 11:49:59;;;;;;;9.30;6.40;;;12.50;64.20;;;;;;5082017;28;20271;-79
2022/03/05 11:52:42;;;;;;;8.48;6.00;;;12.50;60.50;;;;;;5067989;28;20174;-79
2022/03/05 11:55:13;;;;;;;9.13;6.25;;;12.70;58.80;;;;;;5091856;28;20184;-80
2022/03/05 11:57:44;;;;;;;9.13;6.82;;;12.70;57.50;;;;;;5092950;28;20180;-81
2022/03/05 12:00:11;;;;;;;9.63;6.72;;;12.80;61.10;;;;;;5082152;28;20267;-80
2022/03/05 12:02:45;;;;;;;9.00;6.47;;;12.90;61.00;;;;;;5075413;28;20172;-81
2022/03/05 12:05:41;;;;;;;8.40;5.65;;;13.00;61.70;;;;;;5096843;28;20198;-76
2022/03/05 12:08:12;;;;;;;7.10;5.03;;;13.10;59.60;;;;;;5113939;27;20281;-79
2022/03/05 12:10:41;;;;;;;7.05;4.93;;;13.10;63.90;;;;;;5100772;28;20184;-81
2022/03/05 12:13:09;;;;;;;7.45;5.03;;;13.20;65.40;;;;;;5106630;27;20188;-81
2022/03/05 12:15:38;;;;;;;7.88;5.63;;;13.30;64.50;;;;;;5083483;28;20528;-81
2022/03/05 12:18:08;;;;;;;7.65;4.65;;;13.40;62.70;;;;;;5093830;28;20233;-83
2022/03/05 12:20:38;;;;;;;6.38;4.80;;;13.50;64.00;;;;;;5089079;28;20192;-81
2022/03/05 12:23:09;;;;;;;7.00;4.97;;;13.60;63.70;;;;;;5078865;28;20180;-85
2022/03/05 12:25:40;;;;;;;8.52;5.65;;;13.70;60.70;;;;;;5087927;28;20305;-83
2022/03/05 12:28:19;;;;;;;7.53;5.18;;;13.80;57.30;;;;;;5078566;28;20249;-79
2022/03/05 12:30:46;;;;;;;7.03;4.95;;;13.80;57.00;;;;;;5082155;28;20199;-71
2022/03/05 12:33:14;;;;;;;7.65;5.57;;;13.80;59.00;;;;;;5075593;28;20180;-70
2022/03/05 12:35:45;;;;;;;9.60;5.72;;;13.80;56.80;;;;;;5082553;28;20191;-81
2022/03/05 12:38:15;;;;;;;7.80;5.35;;;13.90;58.00;;;;;;5102352;28;20184;-84
2022/03/05 12:40:41;;;;;;;6.70;5.00;;;13.90;55.50;;;;;;5114302;27;20195;-83
2022/03/05 12:43:08;;;;;;;6.32;4.15;;;13.90;56.50;;;;;;5115533;27;20179;-79
2022/03/05 12:45:38;;;;;;;5.97;4.03;;;13.90;57.20;;;;;;5079468;28;20233;-77
2022/03/05 12:48:16;;;;;;;6.90;4.80;;;14.00;57.70;;;;;;5064841;28;20259;-77
2022/03/05 12:50:46;;;;;;;6.35;4.72;;;14.10;54.50;;;;;;5079690;28;20438;-69